createdAt,value
2018-11-20T00:01:02.118Z,36.53
2018-11-20T00:03:52.814Z,39.13
2018-11-20T00:06:45.666Z,40.00
2018-11-20T00:09:36.069Z,42.83
2018-11-20T00:26:34.023Z,39.70
2018-11-20T00:29:12.234Z,35.70
2018-11-20T00:32:06.306Z,36.70
2018-11-20T00:34:54.753Z,40.30
2018-11-20T00:37:47.715Z,36.27
2018-11-20T00:40:41.585Z,38.50
2018-11-20T00:46:22.352Z,40.33
2018-11-20T00:49:12.727Z,40.50
2018-11-20T00:58:01.564Z,37.00
2018-11-20T01:00:52.783Z,36.43
2018-11-20T01:03:45.257Z,37.20
2018-11-20T01:06:35.852Z,33.07
2018-11-20T01:09:28.879Z,38.03
2018-11-20T01:12:24.913Z,38.70
2018-11-20T01:18:03.364Z,37.00
2018-11-20T01:26:23.388Z,37.50
2018-11-20T01:44:42.722Z,31.20
2018-11-20T01:47:33.624Z,33.07
2018-11-20T01:50:22.893Z,36.80
2018-11-20T01:53:09.812Z,37.53
2018-11-20T01:56:00.094Z,36.77
2018-11-20T01:58:43.372Z,37.50
2018-11-20T02:01:38.018Z,36.83
2018-11-20T03:18:11.604Z,37.13
2018-11-20T03:23:49.354Z,36.10
2018-11-20T03:26:37.349Z,43.07
2018-11-20T04:17:05.747Z,40.77
2018-11-20T05:23:59.236Z,35.80
2018-11-20T05:35:20.357Z,30.17
2018-11-20T05:38:12.320Z,29.43
2018-11-20T05:41:01.896Z,34.67
2018-11-20T05:43:50.229Z,27.47
2018-11-20T05:46:39.842Z,26.77
2018-11-20T05:49:18.854Z,28.80
2018-11-20T05:52:08.722Z,29.80
2018-11-20T05:55:03.826Z,29.77
2018-11-20T06:09:45.915Z,32.00
2018-11-20T06:21:00.515Z,30.17
2018-11-20T06:23:44.555Z,27.87
2018-11-20T06:26:33.415Z,28.40
2018-11-20T06:29:22.048Z,35.27
2018-11-20T06:32:00.687Z,27.83
2018-11-20T06:34:49.408Z,30.30
2018-11-20T06:37:38.706Z,29.30
2018-11-20T06:40:28.286Z,34.23
2018-11-20T06:43:17.754Z,32.93
2018-11-20T06:46:06.507Z,32.73
2018-11-20T06:49:01.376Z,40.30
2018-11-20T06:51:49.754Z,41.13
2018-11-20T06:54:38.513Z,40.07
2018-11-20T06:57:27.288Z,55.73
2018-11-20T07:00:15.819Z,51.03
2018-11-20T07:03:04.469Z,37.03
2018-11-20T07:05:53.328Z,42.40
2018-11-20T07:08:41.930Z,41.87
2018-11-20T07:11:30.941Z,39.60
2018-11-20T07:14:21.825Z,49.87
2018-11-20T07:17:10.808Z,45.90
2018-11-20T07:19:59.565Z,40.67
2018-11-20T07:22:48.351Z,54.10
2018-11-20T07:25:36.768Z,50.27
2018-11-20T07:28:25.628Z,44.33
2018-11-20T07:31:14.185Z,40.43
2018-11-20T07:33:56.484Z,41.97
2018-11-20T07:36:45.520Z,45.33
2018-11-20T07:39:34.304Z,42.13
2018-11-20T07:42:22.897Z,35.87
2018-11-20T07:45:11.353Z,38.33
2018-11-20T07:47:54.367Z,43.10
2018-11-20T07:50:43.281Z,40.20
2018-11-20T07:53:32.154Z,38.70
2018-11-20T07:56:20.790Z,41.73
2018-11-20T07:59:09.250Z,32.37
2018-11-20T08:01:57.841Z,40.23
2018-11-20T08:04:41.406Z,38.33
2018-11-20T08:07:27.215Z,40.33
2018-11-20T08:10:08.717Z,40.30
2018-11-20T08:12:57.352Z,42.37
2018-11-20T08:15:34.824Z,39.40
2018-11-20T08:18:15.104Z,42.07
2018-11-20T08:20:50.855Z,44.70
2018-11-20T08:23:39.400Z,35.50
2018-11-20T08:26:28.370Z,39.67
2018-11-20T08:29:12.818Z,55.47
2018-11-20T08:31:51.375Z,47.43
2018-11-20T08:34:29.342Z,39.03
2018-11-20T08:37:17.901Z,39.47
2018-11-20T08:40:06.549Z,31.97
2018-11-20T08:42:55.503Z,35.80
2018-11-20T08:45:43.950Z,28.80
2018-11-20T08:48:32.423Z,40.57
2018-11-20T08:51:20.960Z,36.67
2018-11-20T08:54:09.816Z,30.93
2018-11-20T08:56:58.770Z,38.47
2018-11-20T08:59:47.321Z,39.30
2018-11-20T09:02:28.073Z,99.47
2018-11-20T09:05:16.337Z,34.47
2018-11-20T09:08:05.190Z,34.23
2018-11-20T09:10:53.744Z,32.23
2018-11-20T09:13:42.601Z,33.57
2018-11-20T09:16:27.261Z,30.90
2018-11-20T09:19:15.810Z,26.80
2018-11-20T09:22:04.464Z,32.53
2018-11-20T09:24:51.686Z,37.63
2018-11-20T09:27:35.839Z,34.43
2018-11-20T09:30:24.691Z,32.00
2018-11-20T09:33:03.000Z,36.60
2018-11-20T09:35:51.657Z,31.23
2018-11-20T09:38:40.370Z,34.47
2018-11-20T09:41:29.270Z,33.00
2018-11-20T09:44:23.756Z,35.13
2018-11-20T09:47:12.463Z,43.47
2018-11-20T09:50:00.862Z,34.13
2018-11-20T09:52:49.829Z,51.30
2018-11-20T09:55:38.575Z,33.80
2018-11-20T09:58:26.203Z,30.07
2018-11-20T10:01:08.922Z,32.53
2018-11-20T10:03:57.879Z,34.50
2018-11-20T10:06:46.286Z,29.40
2018-11-20T10:09:35.184Z,36.33
2018-11-20T10:12:21.907Z,33.97
2018-11-20T10:15:08.299Z,37.43
2018-11-20T10:17:56.746Z,38.03
2018-11-20T10:20:46.144Z,28.77
2018-11-20T10:23:35.592Z,29.50
2018-11-20T10:26:24.764Z,33.27
2018-11-20T10:29:13.402Z,28.93
2018-11-20T10:32:03.491Z,37.00
2018-11-20T10:34:52.290Z,29.60
2018-11-20T10:37:41.106Z,25.17
2018-11-20T10:40:29.583Z,32.17
2018-11-20T10:43:18.310Z,35.30
2018-11-20T10:46:07.104Z,31.13
2018-11-20T10:48:55.727Z,30.27
2018-11-20T10:51:40.284Z,33.90
2018-11-20T10:54:19.612Z,32.13
2018-11-20T10:57:08.672Z,29.03
2018-11-20T10:59:57.421Z,43.83
2018-11-20T11:02:46.086Z,43.40
2018-11-20T11:05:41.188Z,37.40
2018-11-20T11:08:29.736Z,39.57
2018-11-20T11:11:06.106Z,33.67
2018-11-20T11:13:54.757Z,37.20
2018-11-20T11:16:43.618Z,39.37
2018-11-20T11:19:32.357Z,38.43
2018-11-20T11:22:21.128Z,38.50
2018-11-20T11:25:08.146Z,41.93
2018-11-20T11:27:56.797Z,33.13
2018-11-20T11:30:45.392Z,39.07
2018-11-20T11:33:34.307Z,37.73
2018-11-20T11:36:22.869Z,46.13
2018-11-20T11:39:02.806Z,34.87
2018-11-20T11:41:51.257Z,41.27
2018-11-20T11:44:40.118Z,30.27
2018-11-20T11:47:28.674Z,42.27
2018-11-20T11:50:17.317Z,42.63
2018-11-20T11:52:55.631Z,44.60
2018-11-20T11:55:44.694Z,34.73
2018-11-20T11:58:33.398Z,29.80
2018-11-20T12:01:22.387Z,39.87
2018-11-20T12:04:10.757Z,34.13
2018-11-20T12:06:59.713Z,36.13
2018-11-20T12:09:48.578Z,34.27
2018-11-20T12:12:37.739Z,37.83
2018-11-20T12:15:20.557Z,35.20
2018-11-20T12:18:09.207Z,37.07
2018-11-20T12:20:58.273Z,40.57
2018-11-20T12:23:46.828Z,45.57
2018-11-20T12:26:35.477Z,47.83
2018-11-20T12:29:24.442Z,36.63
2018-11-20T12:32:13.098Z,38.60
2018-11-20T12:35:01.750Z,46.47
2018-11-20T12:37:50.297Z,36.60
2018-11-20T12:40:39.353Z,38.07
2018-11-20T12:43:27.807Z,33.80
2018-11-20T12:46:16.357Z,40.60
2018-11-20T12:49:06.925Z,38.27
2018-11-20T12:51:54.358Z,34.53
2018-11-20T12:54:42.729Z,59.17
2018-11-20T12:57:26.261Z,47.67
2018-11-20T13:00:15.118Z,36.53
2018-11-20T13:03:03.778Z,41.70
2018-11-20T13:05:52.733Z,40.60
2018-11-20T13:08:41.488Z,41.10
2018-11-20T13:11:30.655Z,52.53
2018-11-20T13:14:11.320Z,40.17
2018-11-20T13:16:59.866Z,41.80
2018-11-20T13:19:47.087Z,42.10
2018-11-20T13:22:37.420Z,39.67
2018-11-20T13:25:24.605Z,45.67
2018-11-20T13:28:13.576Z,51.10
2018-11-20T13:31:02.363Z,41.93
2018-11-20T13:33:51.079Z,42.50
2018-11-20T13:36:36.417Z,35.27
2018-11-20T13:39:26.331Z,36.80
2018-11-20T13:42:16.826Z,40.47
2018-11-20T13:45:07.126Z,43.73
2018-11-20T13:47:55.984Z,47.70
2018-11-20T13:50:44.938Z,45.73
2018-11-20T13:53:33.357Z,40.13
2018-11-20T13:56:21.733Z,95.20
2018-11-20T13:59:10.485Z,50.27
2018-11-20T14:01:59.172Z,35.93
2018-11-20T14:04:48.304Z,38.93
2018-11-20T14:07:37.167Z,42.13
2018-11-20T14:10:27.359Z,41.80
2018-11-20T14:13:16.638Z,39.50
2018-11-20T14:16:01.304Z,50.90
2018-11-20T14:18:53.942Z,50.03
2018-11-20T14:21:44.125Z,42.10
2018-11-20T14:24:33.912Z,43.73
2018-11-20T14:27:24.720Z,35.77
2018-11-20T14:30:14.358Z,48.07
2018-11-20T14:33:00.692Z,42.93
2018-11-20T14:35:49.389Z,50.13
2018-11-20T14:38:38.294Z,42.87
2018-11-20T14:41:27.561Z,35.43
2018-11-20T14:44:16.408Z,57.87
2018-11-20T14:47:05.808Z,48.37
2018-11-20T14:49:54.399Z,50.30
2018-11-20T14:52:43.697Z,44.30
2018-11-20T14:55:32.260Z,50.60
2018-11-20T14:58:15.181Z,46.93
2018-11-20T15:01:04.652Z,44.93
2018-11-20T15:03:52.374Z,44.57
2018-11-20T15:06:41.245Z,54.50
2018-11-20T15:09:29.808Z,44.60
2018-11-20T15:12:18.961Z,46.77
2018-11-20T15:15:08.738Z,40.53
2018-11-20T15:18:00.266Z,59.37
2018-11-20T15:20:53.317Z,53.00
2018-11-20T15:23:41.967Z,46.30
2018-11-20T15:26:31.689Z,42.80
2018-11-20T15:29:20.832Z,45.20
2018-11-20T15:32:09.801Z,48.80
2018-11-20T15:34:58.239Z,41.77
2018-11-20T15:37:35.712Z,81.33
2018-11-20T15:40:25.085Z,89.10
2018-11-20T15:43:12.093Z,69.30
2018-11-20T15:46:01.580Z,55.73
2018-11-20T15:48:50.537Z,55.63
2018-11-20T15:51:39.181Z,51.03
2018-11-20T15:54:27.937Z,39.93
2018-11-20T15:57:16.488Z,40.30
2018-11-20T16:00:05.142Z,43.47
2018-11-20T16:02:51.039Z,50.77
2018-11-20T16:05:57.120Z,43.37
2018-11-20T16:08:37.566Z,37.50
2018-11-20T16:11:33.924Z,44.87
2018-11-20T16:14:22.332Z,54.60
2018-11-20T16:17:16.821Z,56.77
2018-11-20T16:20:04.780Z,74.33
2018-11-20T16:22:52.358Z,67.73
2018-11-20T16:25:41.146Z,74.33
2018-11-20T16:28:29.802Z,52.27
2018-11-20T16:31:18.353Z,59.00
2018-11-20T16:34:07.010Z,54.07
2018-11-20T16:36:55.458Z,60.13
2018-11-20T16:39:44.120Z,51.93
2018-11-20T16:42:32.566Z,57.60
2018-11-20T16:45:13.418Z,58.50
2018-11-20T16:48:02.081Z,71.47
2018-11-20T16:50:48.796Z,54.77
2018-11-20T16:53:37.241Z,54.50
2018-11-20T16:56:25.784Z,51.33
2018-11-20T16:59:14.247Z,58.73
2018-11-20T17:02:02.787Z,53.47
2018-11-20T17:04:46.430Z,64.07
2018-11-20T17:07:35.276Z,65.37
2018-11-20T17:10:26.351Z,64.33
2018-11-20T17:13:15.768Z,67.70
2018-11-20T17:16:07.599Z,74.27
2018-11-20T17:18:56.959Z,69.27
2018-11-20T17:21:45.826Z,76.73
2018-11-20T17:24:35.814Z,66.67
2018-11-20T17:27:25.173Z,62.00
2018-11-20T17:30:14.546Z,75.07
2018-11-20T17:33:03.714Z,85.70
2018-11-20T17:35:31.776Z,95.20
2018-11-20T17:38:20.224Z,65.03
2018-11-20T17:41:09.708Z,76.47
2018-11-20T17:43:59.177Z,84.63
2018-11-20T17:46:43.384Z,54.20
2018-11-20T17:49:27.873Z,75.13
2018-11-20T17:52:10.811Z,65.60
2018-11-20T17:55:01.294Z,76.50
2018-11-20T17:57:53.364Z,77.13
2018-11-20T18:00:41.613Z,70.23
2018-11-20T18:03:28.500Z,85.90
2018-11-20T18:06:08.766Z,69.97
2018-11-20T18:09:00.284Z,78.73
2018-11-20T18:11:49.843Z,58.03
2018-11-20T18:14:42.708Z,64.93
2018-11-20T18:17:27.756Z,65.33
2018-11-20T18:20:16.843Z,61.30
2018-11-20T18:26:28.942Z,61.07
2018-11-20T18:29:17.931Z,55.47
2018-11-20T18:32:06.691Z,74.77
2018-11-20T18:34:52.756Z,70.03
2018-11-20T18:37:42.084Z,64.93
2018-11-20T18:40:31.173Z,68.17
2018-11-20T18:46:35.379Z,79.07
2018-11-20T18:49:24.811Z,89.80
2018-11-20T18:52:14.364Z,93.73
2018-11-20T18:55:03.942Z,91.27
2018-11-20T18:57:58.044Z,85.13
2018-11-20T19:04:10.164Z,73.93
2018-11-20T19:07:21.132Z,81.97
2018-11-20T19:10:10.917Z,73.20
2018-11-20T19:12:59.771Z,78.43
2018-11-20T19:16:01.844Z,98.33
2018-11-20T19:18:43.727Z,103.47
2018-11-20T19:22:01.465Z,106.70
2018-11-20T19:28:21.262Z,75.23
2018-11-20T19:34:04.624Z,59.10
2018-11-20T19:36:56.771Z,69.87
2018-11-20T19:39:46.649Z,85.13
2018-11-20T19:45:58.048Z,88.07
2018-11-20T19:52:08.924Z,110.50
2018-11-20T19:54:58.404Z,91.50
2018-11-20T19:57:48.826Z,106.27
2018-11-20T20:00:37.676Z,120.50
2018-11-20T20:03:26.614Z,112.20
2018-11-20T20:09:27.804Z,123.23
2018-11-20T20:12:16.372Z,121.80
2018-11-20T20:15:05.736Z,91.90
2018-11-20T20:17:54.368Z,76.13
2018-11-20T20:20:43.621Z,76.23
2018-11-20T20:23:32.788Z,74.83
2018-11-20T20:26:21.852Z,87.87
2018-11-20T20:29:12.244Z,94.67
2018-11-20T20:32:01.396Z,84.80
2018-11-20T20:35:01.125Z,98.47
2018-11-20T20:37:50.899Z,81.57
2018-11-20T20:40:49.374Z,86.50
2018-11-20T20:43:50.372Z,84.07
2018-11-20T20:46:42.683Z,87.83
2018-11-20T20:50:07.180Z,90.67
2018-11-20T20:52:58.892Z,83.53
2018-11-20T20:55:53.372Z,111.10
2018-11-20T20:58:42.365Z,91.23
2018-11-20T21:07:48.844Z,92.77
2018-11-20T21:10:38.323Z,96.03
2018-11-20T21:13:29.044Z,82.10
2018-11-20T21:19:32.865Z,76.30
2018-11-20T21:22:25.577Z,81.23
2018-11-20T21:25:28.791Z,77.77
2018-11-20T21:28:21.232Z,71.27
2018-11-20T21:31:10.813Z,73.67
2018-11-20T21:34:06.851Z,68.37
2018-11-20T21:40:15.914Z,101.23
2018-11-20T21:43:05.432Z,87.43
2018-11-20T21:49:07.426Z,90.27
2018-11-20T21:51:57.243Z,72.37
2018-11-20T21:54:48.035Z,70.80
2018-11-20T21:57:35.680Z,77.97
2018-11-20T22:00:29.744Z,85.30
2018-11-20T22:03:19.628Z,102.23
2018-11-20T22:12:46.828Z,62.03
2018-11-20T22:15:35.765Z,70.43
2018-11-20T22:18:25.373Z,74.90
2018-11-20T22:21:06.723Z,59.83
2018-11-20T22:23:59.500Z,67.37
2018-11-20T22:30:02.820Z,73.83
2018-11-20T22:33:08.721Z,66.37
2018-11-20T22:38:53.412Z,58.67
2018-11-20T22:41:41.884Z,60.80
2018-11-20T22:47:43.975Z,67.87
2018-11-20T22:50:26.492Z,64.80
2018-11-20T22:53:13.811Z,67.77
2018-11-20T22:56:02.393Z,66.87
2018-11-20T22:58:50.796Z,71.53
2018-11-20T23:01:39.962Z,67.33
2018-11-20T23:07:39.997Z,70.07
2018-11-20T23:10:10.368Z,75.03
2018-11-20T23:12:40.748Z,73.53
2018-11-20T23:15:12.712Z,59.37
2018-11-20T23:17:42.728Z,62.43
2018-11-20T23:20:13.463Z,68.80
2018-11-20T23:22:43.786Z,56.33
2018-11-20T23:28:27.547Z,61.10
2018-11-20T23:34:19.798Z,60.13
2018-11-20T23:36:52.068Z,62.47
2018-11-20T23:39:22.711Z,53.40
2018-11-20T23:41:53.234Z,64.63
2018-11-20T23:44:24.681Z,53.67
2018-11-20T23:46:55.621Z,61.57
2018-11-20T23:49:25.944Z,65.77
2018-11-20T23:51:56.164Z,63.63
2018-11-20T23:54:26.377Z,52.57
2018-11-20T23:56:57.733Z,47.63
2018-11-20T23:59:32.967Z,49.83
